createdAt,value
2022-10-04T00:01:10.559Z,13.56
2022-10-04T00:03:53.994Z,13.56
2022-10-04T00:06:26.153Z,13.50
2022-10-04T00:09:07.944Z,13.42
2022-10-04T00:11:38.255Z,13.41
2022-10-04T00:14:35.674Z,13.37
2022-10-04T00:17:13.791Z,13.38
2022-10-04T00:19:51.501Z,13.40
2022-10-04T00:22:27.137Z,13.47
2022-10-04T00:25:13.834Z,13.37
2022-10-04T00:28:17.385Z,13.26
2022-10-04T00:30:45.250Z,13.18
2022-10-04T00:33:45.927Z,13.12
2022-10-04T00:36:25.799Z,13.15
2022-10-04T00:39:05.634Z,13.10
2022-10-04T00:41:48.282Z,13.06
2022-10-04T00:44:57.114Z,13.09
2022-10-04T00:47:46.066Z,13.10
2022-10-04T00:50:49.428Z,13.03
2022-10-04T00:53:40.324Z,13.01
2022-10-04T00:56:36.627Z,13.05
2022-10-04T00:59:36.738Z,13.03
2022-10-04T01:02:16.436Z,13.09
2022-10-04T01:05:15.145Z,13.08
2022-10-04T01:07:48.317Z,13.12
2022-10-04T01:10:40.766Z,13.13
2022-10-04T01:13:22.951Z,13.02
2022-10-04T01:15:56.680Z,12.85
2022-10-04T01:18:24.076Z,12.79
2022-10-04T01:21:09.063Z,12.66
2022-10-04T01:23:41.896Z,12.65
2022-10-04T01:26:31.755Z,12.71
2022-10-04T01:29:06.763Z,12.69
2022-10-04T01:31:48.241Z,12.77
2022-10-04T01:34:25.465Z,12.80
2022-10-04T01:36:59.466Z,12.75
2022-10-04T01:39:28.930Z,12.72
2022-10-04T01:42:12.687Z,12.65
2022-10-04T01:44:55.511Z,12.61
2022-10-04T01:47:48.748Z,12.64
2022-10-04T01:50:42.069Z,12.59
2022-10-04T01:53:23.027Z,12.55
2022-10-04T01:56:20.095Z,12.42
2022-10-04T01:58:54.512Z,12.25
2022-10-04T02:01:55.097Z,12.24
2022-10-04T02:04:30.630Z,12.18
2022-10-04T02:07:01.820Z,12.16
2022-10-04T02:09:35.494Z,12.21
2022-10-04T02:12:03.260Z,12.22
2022-10-04T02:14:37.134Z,12.09
2022-10-04T02:17:10.571Z,12.06
2022-10-04T02:19:45.106Z,12.00
2022-10-04T02:22:12.774Z,12.07
2022-10-04T02:24:45.645Z,12.03
2022-10-04T02:27:14.270Z,12.02
2022-10-04T02:29:42.454Z,11.93
2022-10-04T02:32:29.829Z,11.93
2022-10-04T02:34:58.548Z,11.86
2022-10-04T02:37:28.726Z,11.79
2022-10-04T02:40:05.307Z,11.79
2022-10-04T02:43:04.511Z,11.85
2022-10-04T02:45:34.749Z,11.86
2022-10-04T02:48:27.421Z,11.86
2022-10-04T02:51:00.795Z,11.87
2022-10-04T02:53:32.556Z,11.85
2022-10-04T02:56:02.797Z,11.86
2022-10-04T02:58:32.151Z,11.91
2022-10-04T03:01:01.887Z,11.81
2022-10-04T03:03:39.379Z,11.83
2022-10-04T03:06:18.023Z,11.81
2022-10-04T03:09:00.095Z,11.87
2022-10-04T03:11:34.554Z,11.92
2022-10-04T03:14:08.200Z,12.00
2022-10-04T03:16:41.820Z,11.92
2022-10-04T03:19:11.023Z,11.90
2022-10-04T03:21:40.706Z,11.89
2022-10-04T03:24:12.014Z,11.88
2022-10-04T03:26:47.238Z,11.86
2022-10-04T03:29:19.148Z,11.84
2022-10-04T03:31:51.666Z,11.81
2022-10-04T03:34:24.228Z,11.91
2022-10-04T03:36:58.769Z,11.97
2022-10-04T03:39:40.266Z,11.83
2022-10-04T03:42:38.108Z,11.78
2022-10-04T03:45:15.714Z,11.77
2022-10-04T03:47:50.553Z,11.62
2022-10-04T03:50:34.257Z,11.63
2022-10-04T03:53:09.895Z,11.63
2022-10-04T03:55:43.727Z,11.55
2022-10-04T03:58:17.126Z,11.53
2022-10-04T04:01:20.584Z,11.52
2022-10-04T04:04:15.943Z,11.59
2022-10-04T04:07:11.426Z,11.55
2022-10-04T04:09:45.854Z,11.50
2022-10-04T04:12:27.177Z,11.49
2022-10-04T04:14:55.025Z,11.49
2022-10-04T04:17:42.519Z,11.53
2022-10-04T04:20:31.264Z,11.56
2022-10-04T04:23:15.077Z,11.56
2022-10-04T04:25:48.721Z,11.49
2022-10-04T04:28:32.807Z,11.38
2022-10-04T04:31:28.474Z,11.36
2022-10-04T04:34:15.595Z,11.27
2022-10-04T04:36:43.416Z,11.23
2022-10-04T04:39:37.069Z,11.27
2022-10-04T04:42:11.252Z,11.23
2022-10-04T04:44:49.353Z,11.29
2022-10-04T04:47:40.759Z,11.29
2022-10-04T04:50:13.405Z,11.33
2022-10-04T04:52:48.230Z,11.36
2022-10-04T04:55:36.750Z,11.35
2022-10-04T04:58:28.344Z,11.38
2022-10-04T05:01:41.180Z,11.38
2022-10-04T05:04:08.993Z,11.46
2022-10-04T05:07:01.493Z,11.45
2022-10-04T05:09:34.202Z,11.33
2022-10-04T05:12:22.501Z,11.23
2022-10-04T05:14:54.510Z,11.26
2022-10-04T05:17:31.071Z,11.34
2022-10-04T05:20:01.132Z,11.42
2022-10-04T05:22:30.477Z,11.28
2022-10-04T05:25:02.927Z,11.28
2022-10-04T05:27:42.437Z,11.21
2022-10-04T05:30:40.300Z,11.33
2022-10-04T05:33:14.812Z,11.40
2022-10-04T05:36:11.873Z,11.31
2022-10-04T05:39:08.322Z,11.16
2022-10-04T05:41:50.677Z,11.12
2022-10-04T05:44:27.870Z,11.10
2022-10-04T05:47:01.365Z,11.12
2022-10-04T05:49:36.855Z,11.15
2022-10-04T05:52:15.639Z,11.20
2022-10-04T05:54:43.958Z,11.22
2022-10-04T05:57:28.361Z,11.25
2022-10-04T06:00:09.825Z,11.39
2022-10-04T06:03:21.132Z,11.40
2022-10-04T06:05:57.530Z,11.38
2022-10-04T06:08:50.654Z,11.40
2022-10-04T06:11:42.150Z,11.55
2022-10-04T06:15:09.940Z,11.75
2022-10-04T06:18:01.607Z,11.74
2022-10-04T06:20:47.247Z,11.68
2022-10-04T06:23:18.633Z,11.80
2022-10-04T06:26:03.255Z,11.85
2022-10-04T06:28:48.005Z,11.89
2022-10-04T06:31:34.947Z,11.94
2022-10-04T06:35:04.870Z,12.12
2022-10-04T06:38:28.120Z,12.10
2022-10-04T06:41:21.719Z,12.21
2022-10-04T06:44:08.847Z,12.27
2022-10-04T06:46:58.009Z,12.19
2022-10-04T06:49:44.253Z,12.15
2022-10-04T06:52:29.651Z,12.19
2022-10-04T06:55:46.360Z,12.28
2022-10-04T06:58:38.302Z,12.26
2022-10-04T07:01:32.433Z,12.43
2022-10-04T07:05:07.081Z,12.48
2022-10-04T07:07:38.736Z,12.69
2022-10-04T07:10:18.044Z,12.82
2022-10-04T07:13:20.470Z,12.78
2022-10-04T07:16:46.519Z,12.87
2022-10-04T07:19:20.204Z,13.01
2022-10-04T07:22:08.168Z,13.08
2022-10-04T07:25:00.318Z,13.08
2022-10-04T07:27:47.913Z,13.14
2022-10-04T07:30:20.288Z,13.25
2022-10-04T07:32:51.835Z,13.40
2022-10-04T07:35:39.716Z,13.42
2022-10-04T07:38:24.653Z,13.53
2022-10-04T07:41:04.950Z,13.67
2022-10-04T07:43:39.403Z,13.70
2022-10-04T07:46:38.577Z,13.73
2022-10-04T07:49:17.725Z,13.76
2022-10-04T07:52:19.112Z,13.74
2022-10-04T07:55:21.078Z,13.81
2022-10-04T07:58:24.688Z,13.90
2022-10-04T08:01:16.513Z,14.01
2022-10-04T08:03:58.443Z,14.13
2022-10-04T08:07:17.112Z,14.22
2022-10-04T08:10:28.873Z,14.38
2022-10-04T08:13:24.455Z,14.45
2022-10-04T08:15:59.240Z,14.56
2022-10-04T08:18:29.542Z,14.74
2022-10-04T08:21:05.490Z,14.84
2022-10-04T08:24:03.442Z,14.88
2022-10-04T08:27:08.459Z,15.02
2022-10-04T08:30:01.185Z,15.07
2022-10-04T08:32:54.762Z,15.05
2022-10-04T08:35:45.827Z,15.08
2022-10-04T08:38:36.431Z,15.11
2022-10-04T08:41:43.571Z,15.19
2022-10-04T08:45:04.054Z,15.21
2022-10-04T08:48:11.024Z,15.12
2022-10-04T08:51:03.173Z,15.11
2022-10-04T08:54:32.444Z,15.19
2022-10-04T08:57:16.541Z,15.30
2022-10-04T09:00:13.977Z,15.33
2022-10-04T09:02:54.111Z,15.24
2022-10-04T09:05:33.905Z,15.21
2022-10-04T09:08:41.477Z,15.22
2022-10-04T09:11:40.474Z,15.24
2022-10-04T09:14:38.935Z,15.32
2022-10-04T09:17:23.698Z,15.46
2022-10-04T09:20:33.235Z,15.52
2022-10-04T09:23:33.707Z,15.64
2022-10-04T09:26:32.469Z,15.80
2022-10-04T09:29:30.082Z,15.82
2022-10-04T09:32:16.207Z,15.94
2022-10-04T09:35:29.303Z,16.15
2022-10-04T09:38:18.198Z,16.20
2022-10-04T09:41:53.043Z,16.35
2022-10-04T09:45:21.685Z,16.29
2022-10-04T09:48:08.465Z,16.20
2022-10-04T09:51:07.954Z,16.19
2022-10-04T09:53:55.410Z,16.27
2022-10-04T09:57:14.882Z,16.38
2022-10-04T09:59:59.128Z,16.36
2022-10-04T10:03:01.719Z,16.26
2022-10-04T10:05:57.677Z,16.28
2022-10-04T10:08:57.291Z,16.37
2022-10-04T10:12:05.903Z,16.30
2022-10-04T10:15:23.577Z,16.29
2022-10-04T10:18:00.958Z,16.35
2022-10-04T10:21:18.011Z,16.44
2022-10-04T10:24:38.855Z,16.60
2022-10-04T10:27:30.920Z,16.67
2022-10-04T10:30:12.041Z,16.74
2022-10-04T10:32:56.180Z,16.70
2022-10-04T10:36:16.107Z,16.62
2022-10-04T10:39:17.135Z,16.70
2022-10-04T10:42:12.222Z,16.67
2022-10-04T10:45:10.520Z,16.70
2022-10-04T10:48:14.311Z,16.70
2022-10-04T10:51:12.812Z,16.75
2022-10-04T10:54:17.622Z,16.71
2022-10-04T10:57:24.202Z,16.78
2022-10-04T11:00:34.507Z,17.03
2022-10-04T11:03:32.334Z,17.24
2022-10-04T11:06:29.582Z,17.40
2022-10-04T11:09:25.212Z,17.66
2022-10-04T11:12:40.198Z,17.77
2022-10-04T11:15:32.923Z,17.85
2022-10-04T11:18:50.889Z,17.95
2022-10-04T11:21:46.570Z,17.90
2022-10-04T11:24:46.811Z,17.82
2022-10-04T11:27:49.144Z,17.82
2022-10-04T11:30:37.282Z,17.73
2022-10-04T11:33:54.239Z,17.85
2022-10-04T11:37:08.996Z,18.17
2022-10-04T11:40:13.335Z,18.18
2022-10-04T11:42:57.907Z,18.05
2022-10-04T11:45:34.106Z,17.97
2022-10-04T11:48:26.581Z,17.98
2022-10-04T11:51:47.835Z,18.03
2022-10-04T11:54:28.707Z,18.08
2022-10-04T11:57:26.669Z,18.02
2022-10-04T12:00:18.595Z,17.93
2022-10-04T12:03:23.427Z,17.92
2022-10-04T12:06:31.423Z,17.96
2022-10-04T12:09:05.053Z,18.17
2022-10-04T12:12:08.063Z,18.32
2022-10-04T12:15:24.577Z,18.39
2022-10-04T12:18:10.432Z,18.51
2022-10-04T12:21:28.926Z,18.55
2022-10-04T12:24:42.324Z,18.47
2022-10-04T12:27:59.640Z,18.62
2022-10-04T12:30:54.614Z,18.81
2022-10-04T12:33:54.220Z,18.78
2022-10-04T12:36:48.970Z,18.82
2022-10-04T12:39:41.385Z,18.69
2022-10-04T12:42:53.189Z,18.32
2022-10-04T12:45:38.806Z,18.16
2022-10-04T12:48:28.322Z,18.05
2022-10-04T12:51:10.792Z,17.86
2022-10-04T12:54:02.936Z,17.74
2022-10-04T12:56:48.108Z,17.67
2022-10-04T12:59:55.154Z,17.62
2022-10-04T13:02:38.902Z,17.57
2022-10-04T13:05:33.922Z,17.54
2022-10-04T13:08:22.715Z,17.51
2022-10-04T13:11:23.233Z,17.37
2022-10-04T13:14:25.955Z,17.21
2022-10-04T13:17:34.600Z,17.00
2022-10-04T13:20:27.049Z,16.82
2022-10-04T13:23:21.049Z,16.73
2022-10-04T13:26:28.003Z,16.51
2022-10-04T13:29:06.887Z,16.25
2022-10-04T13:31:59.149Z,16.15
2022-10-04T13:34:48.405Z,16.08
2022-10-04T13:37:28.579Z,15.94
2022-10-04T13:40:21.529Z,15.85
2022-10-04T13:44:15.320Z,15.75
2022-10-04T13:47:36.295Z,15.71
2022-10-04T13:50:15.461Z,15.76
2022-10-04T13:53:13.143Z,15.85
2022-10-04T13:56:29.710Z,15.99
2022-10-04T13:59:18.624Z,16.05
2022-10-04T14:02:29.069Z,16.15
2022-10-04T14:05:23.469Z,16.28
2022-10-04T14:08:19.424Z,16.41
2022-10-04T14:11:43.632Z,16.53
2022-10-04T14:14:56.666Z,16.57
2022-10-04T14:17:46.320Z,16.58
2022-10-04T14:20:35.539Z,16.63
2022-10-04T14:23:34.405Z,16.69
2022-10-04T14:26:10.587Z,16.66
2022-10-04T14:29:14.289Z,16.61
2022-10-04T14:32:15.491Z,16.52
2022-10-04T14:35:19.154Z,16.50
2022-10-04T14:37:49.411Z,16.51
2022-10-04T14:40:59.829Z,16.53
2022-10-04T14:43:58.580Z,16.44
2022-10-04T14:47:01.835Z,16.36
2022-10-04T14:49:48.046Z,16.24
2022-10-04T14:52:33.569Z,16.19
2022-10-04T14:55:58.226Z,16.13
2022-10-04T14:58:50.324Z,16.05
2022-10-04T15:01:33.072Z,16.05
2022-10-04T15:04:51.412Z,16.10
2022-10-04T15:07:31.939Z,16.08
2022-10-04T15:10:38.203Z,16.11
2022-10-04T15:13:55.461Z,16.08
2022-10-04T15:16:53.119Z,16.15
2022-10-04T15:19:20.872Z,16.20
2022-10-04T15:22:06.748Z,16.18
2022-10-04T15:24:49.145Z,16.16
2022-10-04T15:27:35.514Z,16.14
2022-10-04T15:30:24.116Z,16.11
2022-10-04T15:33:06.625Z,16.04
2022-10-04T15:36:01.967Z,16.16
2022-10-04T15:38:48.433Z,16.18
2022-10-04T15:41:54.259Z,16.18
2022-10-04T15:44:53.359Z,16.10
2022-10-04T15:48:21.643Z,16.05
2022-10-04T15:51:47.361Z,15.94
2022-10-04T15:55:05.015Z,15.89
2022-10-04T15:58:19.926Z,15.88
2022-10-04T16:01:22.114Z,15.86
2022-10-04T16:04:26.968Z,15.86
2022-10-04T16:07:00.459Z,15.83
2022-10-04T16:09:33.658Z,15.83
2022-10-04T16:12:28.240Z,15.79
2022-10-04T16:15:19.462Z,15.76
2022-10-04T16:17:49.853Z,15.74
2022-10-04T16:20:26.230Z,15.73
2022-10-04T16:23:35.532Z,15.70
2022-10-04T16:26:19.693Z,15.66
2022-10-04T16:29:11.792Z,15.61
2022-10-04T16:32:31.263Z,15.58
2022-10-04T16:35:38.895Z,15.54
2022-10-04T16:38:12.159Z,15.50
2022-10-04T16:40:51.818Z,15.51
2022-10-04T16:43:19.054Z,15.48
2022-10-04T16:46:23.262Z,15.44
2022-10-04T16:49:03.593Z,15.43
2022-10-04T16:51:54.176Z,15.46
2022-10-04T16:55:00.994Z,15.44
2022-10-04T16:57:29.337Z,15.42
2022-10-04T17:00:20.658Z,15.37
2022-10-04T17:03:35.098Z,15.34
2022-10-04T17:06:15.410Z,15.33
2022-10-04T17:09:24.139Z,15.33
2022-10-04T17:11:54.802Z,15.33
2022-10-04T17:14:48.349Z,15.28
2022-10-04T17:17:38.065Z,15.33
2022-10-04T17:20:13.027Z,15.33
2022-10-04T17:23:19.266Z,15.34
2022-10-04T17:26:38.298Z,15.28
2022-10-04T17:30:01.443Z,15.28
2022-10-04T17:32:55.009Z,15.31
2022-10-04T17:36:20.536Z,15.30
2022-10-04T17:38:48.193Z,15.26
2022-10-04T17:41:42.843Z,15.28
2022-10-04T17:44:29.404Z,15.19
2022-10-04T17:47:57.688Z,15.14
2022-10-04T17:51:31.915Z,15.04
2022-10-04T17:54:56.611Z,15.07
2022-10-04T17:58:03.453Z,15.05
2022-10-04T18:01:15.208Z,15.10
2022-10-04T18:04:21.445Z,15.14
2022-10-04T18:07:09.182Z,15.13
2022-10-04T18:09:53.619Z,15.14
2022-10-04T18:12:46.585Z,15.15
2022-10-04T18:15:26.710Z,15.14
2022-10-04T18:18:30.099Z,15.00
2022-10-04T18:21:16.075Z,14.98
2022-10-04T18:23:54.974Z,15.00
2022-10-04T18:26:27.495Z,14.91
2022-10-04T18:28:55.883Z,14.93
2022-10-04T18:31:32.594Z,14.90
2022-10-04T18:34:29.795Z,14.88
2022-10-04T18:37:29.753Z,14.81
2022-10-04T18:40:15.904Z,14.80
2022-10-04T18:42:57.644Z,14.82
2022-10-04T18:45:29.012Z,14.72
2022-10-04T18:48:01.443Z,14.75
2022-10-04T18:50:36.539Z,14.73
2022-10-04T18:53:41.311Z,14.63
2022-10-04T18:56:12.341Z,14.55
2022-10-04T18:59:23.936Z,14.54
2022-10-04T19:02:25.681Z,14.57
2022-10-04T19:05:18.432Z,14.56
2022-10-04T19:08:19.205Z,14.50
2022-10-04T19:11:30.551Z,14.55
2022-10-04T19:14:18.735Z,14.50
2022-10-04T19:17:03.221Z,14.48
2022-10-04T19:20:03.959Z,14.47
2022-10-04T19:22:50.966Z,14.52
2022-10-04T19:25:41.118Z,14.53
2022-10-04T19:28:30.114Z,14.49
2022-10-04T19:31:27.031Z,14.52
2022-10-04T19:34:14.575Z,14.46
2022-10-04T19:36:59.227Z,14.47
2022-10-04T19:39:56.253Z,14.51
2022-10-04T19:43:00.325Z,14.48
2022-10-04T19:46:16.245Z,14.38
2022-10-04T19:48:49.972Z,14.36
2022-10-04T19:51:34.716Z,14.40
2022-10-04T19:54:16.177Z,14.51
2022-10-04T19:56:50.157Z,14.47
2022-10-04T19:59:40.661Z,14.40
2022-10-04T20:02:13.639Z,14.36
2022-10-04T20:04:43.726Z,14.33
2022-10-04T20:07:41.308Z,14.32
2022-10-04T20:10:21.489Z,14.28
2022-10-04T20:13:10.996Z,14.17
2022-10-04T20:15:38.701Z,14.14
2022-10-04T20:18:33.900Z,14.16
2022-10-04T20:21:01.527Z,14.18
2022-10-04T20:23:38.895Z,14.20
2022-10-04T20:26:09.402Z,14.16
2022-10-04T20:28:42.179Z,14.14
2022-10-04T20:31:32.981Z,14.14
2022-10-04T20:34:33.231Z,14.11
2022-10-04T20:37:02.062Z,14.09
2022-10-04T20:39:41.936Z,14.12
2022-10-04T20:42:36.076Z,14.14
2022-10-04T20:45:09.792Z,14.13
2022-10-04T20:47:40.960Z,14.13
2022-10-04T20:50:40.839Z,14.16
2022-10-04T20:53:26.105Z,14.09
2022-10-04T20:56:32.461Z,14.02
2022-10-04T20:59:03.385Z,13.97
2022-10-04T21:01:37.861Z,13.98
2022-10-04T21:04:46.914Z,13.98
2022-10-04T21:07:25.948Z,13.97
2022-10-04T21:10:06.188Z,14.01
2022-10-04T21:12:40.157Z,14.04
2022-10-04T21:15:16.278Z,14.12
2022-10-04T21:18:03.842Z,14.08
2022-10-04T21:20:51.662Z,14.03
2022-10-04T21:23:30.432Z,14.05
2022-10-04T21:26:24.156Z,14.09
2022-10-04T21:28:57.846Z,14.12
2022-10-04T21:31:25.967Z,14.14
2022-10-04T21:33:53.792Z,14.15
2022-10-04T21:36:21.412Z,14.15
2022-10-04T21:38:48.957Z,14.14
2022-10-04T21:41:16.735Z,14.09
2022-10-04T21:43:44.206Z,14.09
2022-10-04T21:46:14.351Z,14.11
2022-10-04T21:48:45.044Z,14.09
2022-10-04T21:51:12.481Z,14.10
2022-10-04T21:53:39.998Z,14.11
2022-10-04T21:56:08.284Z,14.11
2022-10-04T21:58:35.870Z,14.12
2022-10-04T22:01:04.146Z,14.10
2022-10-04T22:03:32.350Z,14.01
2022-10-04T22:06:00.166Z,13.99
2022-10-04T22:08:27.628Z,14.00
2022-10-04T22:10:57.734Z,13.98
2022-10-04T22:13:26.916Z,13.95
2022-10-04T22:15:55.220Z,14.02
2022-10-04T22:18:22.958Z,13.97
2022-10-04T22:20:50.510Z,13.96
2022-10-04T22:23:24.564Z,13.98
2022-10-04T22:25:54.596Z,13.98
2022-10-04T22:28:29.066Z,14.01
2022-10-04T22:30:57.319Z,14.04
2022-10-04T22:33:37.639Z,14.06
2022-10-04T22:36:25.179Z,14.05
2022-10-04T22:39:16.816Z,14.06
2022-10-04T22:42:03.426Z,14.03
2022-10-04T22:44:38.972Z,13.99
2022-10-04T22:47:16.347Z,13.91
2022-10-04T22:49:47.786Z,13.89
2022-10-04T22:52:28.092Z,13.87
2022-10-04T22:55:02.030Z,13.87
2022-10-04T22:57:31.468Z,13.84
2022-10-04T22:59:58.910Z,13.81
2022-10-04T23:02:30.325Z,13.81
2022-10-04T23:05:19.970Z,13.79
2022-10-04T23:07:48.256Z,13.70
2022-10-04T23:10:19.693Z,13.59
2022-10-04T23:12:51.666Z,13.57
2022-10-04T23:15:21.425Z,13.56
2022-10-04T23:17:55.532Z,13.58
2022-10-04T23:20:23.845Z,13.61
2022-10-04T23:22:54.221Z,13.57
2022-10-04T23:25:28.894Z,13.52
2022-10-04T23:28:07.865Z,13.56
2022-10-04T23:30:35.359Z,13.51
2022-10-04T23:33:11.828Z,13.44
2022-10-04T23:35:39.463Z,13.44
2022-10-04T23:38:16.308Z,13.46
2022-10-04T23:40:45.101Z,13.43
2022-10-04T23:43:22.075Z,13.41
2022-10-04T23:45:49.674Z,13.47
2022-10-04T23:48:26.028Z,13.45
2022-10-04T23:50:56.440Z,13.42
2022-10-04T23:53:27.927Z,13.40
2022-10-04T23:55:57.618Z,13.42
2022-10-04T23:58:34.100Z,13.49
